| time (UTC) | temp F | wind direction | speed MPH | gust MPH | rain 1hr in | rain 24hr in | rain mn in | humidity % | barometer mb |
| 20260503230031 | 56 | 251 | 0.0 | 0.0 | 0.00 | 0.00 | 0.00 | 33 | 1015.0 |
| 20260503224512 | 58 | 203 | 0.0 | 0.0 | 0.00 | 0.00 | 0.00 | 32 | 1014.9 |
| 20260503223009 | 58 | 303 | 0.0 | 1.0 | 0.00 | 0.00 | 0.00 | 32 | 1014.9 |
| 20260503221509 | 57 | 285 | 0.0 | 3.0 | 0.00 | 0.00 | 0.00 | 30 | 1015.0 |
| 20260503220008 | 57 | 272 | 1.0 | 6.0 | 0.00 | 0.00 | 0.00 | 30 | 1015.1 |
| 20260503214515 | 58 | 70 | 0.0 | 3.0 | 0.00 | 0.00 | 0.00 | 30 | 1015.0 |
| 20260503213004 | 58 | 259 | 0.0 | 3.0 | 0.00 | 0.00 | 0.00 | 30 | 1015.0 |
| 20260503211501 | 58 | 259 | 0.0 | 0.0 | 0.00 | 0.00 | 0.00 | 30 | 1015.0 |
| 20260503210059 | 57 | 346 | 0.0 | 1.0 | 0.00 | 0.00 | 0.00 | 30 | 1015.3 |
| 20260503204620 | 57 | 340 | 0.0 | 2.0 | 0.00 | 0.00 | 0.00 | 31 | 1015.2 |
| 20260503203104 | 57 | 360 | 0.0 | 5.0 | 0.00 | 0.00 | 0.00 | 33 | 1015.1 |
| 20260503201553 | 56 | 360 | 0.0 | 3.0 | 0.00 | 0.00 | 0.00 | 33 | 1015.5 |
| 20260503200050 | 56 | 360 | 0.0 | 3.0 | 0.00 | 0.00 | 0.00 | 33 | 1015.6 |
| 20260503194547 | 55 | 284 | 0.0 | 4.0 | 0.00 | 0.00 | 0.00 | 36 | 1015.6 |
| 20260503193048 | 54 | 315 | 0.0 | 2.0 | 0.00 | 0.00 | 0.00 | 36 | 1015.7 |
| 20260503191605 | 54 | 360 | 1.0 | 11.0 | 0.00 | 0.00 | 0.00 | 35 | 1016.2 |
| 20260503190040 | 53 | 261 | 0.0 | 4.0 | 0.00 | 0.00 | 0.00 | 37 | 1016.6 |
| 20260503184539 | 52 | 347 | 0.0 | 1.0 | 0.00 | 0.00 | 0.00 | 41 | 1016.6 |
| 20260503183036 | 52 | 272 | 0.0 | 1.0 | 0.00 | 0.00 | 0.00 | 39 | 1016.7 |
| 20260503181546 | 52 | 286 | 0.0 | 9.0 | 0.00 | 0.00 | 0.00 | 40 | 1016.7 |
| 20260503180034 | 51 | 360 | 0.0 | 4.0 | 0.00 | 0.00 | 0.00 | 44 | 1016.7 |
| 20260503174534 | 50 | 360 | 1.0 | 6.0 | 0.00 | 0.00 | 0.00 | 43 | 1016.7 |
| 20260503173028 | 49 | 360 | 0.0 | 3.0 | 0.00 | 0.00 | 0.00 | 43 | 1016.6 |
| 20260503171525 | 48 | 360 | 0.0 | 3.0 | 0.00 | 0.00 | 0.00 | 46 | 1016.8 |
| 20260503081524 | 35 | 360 | 0.0 | 1.0 | 0.00 | 0.00 | 0.00 | 77 | 1013.9 |
| 20260503071507 | 36 | 360 | 0.0 | 4.0 | 0.00 | 0.00 | 0.00 | 76 | 1013.2 |
| 20260503054556 | 36 | 360 | 0.0 | 0.0 | 0.00 | 0.00 | 0.00 | 77 | 1013.1 |
| 20260503053035 | 37 | 360 | 0.0 | 0.0 | 0.00 | 0.00 | 0.00 | 76 | 1013.2 |
| 20260503051542 | 37 | 360 | 0.0 | 3.0 | 0.00 | 0.00 | 0.00 | 76 | 1013.2 |
| 20260503050032 | 38 | 360 | 0.0 | 0.0 | 0.00 | 0.00 | 0.00 | 75 | 1013.2 |
| 20260503044536 | 38 | 360 | 0.0 | 1.0 | 0.00 | 0.00 | 0.00 | 73 | 1013.2 |
| 20260503043030 | 38 | 360 | 0.0 | 0.0 | 0.00 | 0.00 | 0.00 | 73 | 1013.2 |
| 20260503041525 | 39 | 360 | 0.0 | 0.0 | 0.00 | 0.00 | 0.00 | 73 | 1013.4 |
| 20260503040021 | 39 | 360 | 0.0 | 0.0 | 0.00 | 0.00 | 0.00 | 71 | 1013.3 |
| 20260503034520 | 40 | 360 | 0.0 | 0.0 | 0.00 | 0.00 | 0.00 | 69 | 1013.1 |
| 20260503033019 | 40 | 360 | 0.0 | 0.0 | 0.00 | 0.00 | 0.00 | 68 | 1013.0 |
| 20260503031519 | 41 | 360 | 0.0 | 0.0 | 0.00 | 0.00 | 0.00 | 66 | 1013.0 |
| 20260503030018 | 41 | 360 | 0.0 | 0.0 | 0.00 | 0.00 | 0.00 | 66 | 1013.1 |
| 20260503024518 | 42 | 360 | 0.0 | 0.0 | 0.00 | 0.00 | 0.00 | 63 | 1013.0 |
| 20260503023017 | 43 | 360 | 0.0 | 0.0 | 0.00 | 0.00 | 0.00 | 61 | 1012.9 |
| 20260503021522 | 43 | 360 | 0.0 | 0.0 | 0.00 | 0.00 | 0.00 | 58 | 1013.0 |
| 20260503020017 | 43 | 360 | 0.0 | 0.0 | 0.00 | 0.00 | 0.00 | 57 | 1013.1 |
| 20260503014516 | 43 | 360 | 0.0 | 0.0 | 0.00 | 0.00 | 0.00 | 56 | 1013.1 |
| 20260503013029 | 44 | 360 | 0.0 | 0.0 | 0.00 | 0.00 | 0.00 | 57 | 1013.0 |
| 20260503011514 | 44 | 360 | 0.0 | 0.0 | 0.00 | 0.00 | 0.00 | 54 | 1012.8 |
| 20260503010013 | 44 | 360 | 0.0 | 0.0 | 0.00 | 0.00 | 0.00 | 55 | 1012.7 |
| 20260503004513 | 44 | 360 | 0.0 | 1.0 | 0.00 | 0.00 | 0.00 | 54 | 1012.4 |
| 20260503003013 | 44 | 360 | 0.0 | 0.0 | 0.00 | 0.00 | 0.00 | 55 | 1012.2 |
| 20260503001511 | 45 | 360 | 0.0 | 0.0 | 0.00 | 0.00 | 0.00 | 54 | 1011.9 |
| 20260503000010 | 45 | 360 | 0.0 | 0.0 | 0.00 | 0.00 | 0.00 | 57 | 1011.8 |
| 20260502234510 | 45 | 360 | 0.0 | 3.0 | 0.00 | 0.00 | 0.00 | 53 | 1011.4 |
| 20260502233026 | 46 | 360 | 0.0 | 0.0 | 0.00 | 0.00 | 0.00 | 55 | 1011.2 |
| 20260502231509 | 47 | 360 | 0.0 | 0.0 | 0.00 | 0.00 | 0.00 | 55 | 1011.1 |